sensor_id;sensor_type;location;lat;lon;timestamp;temperature;humidity
53412;DHT22;39307;52.870;13.660;2024-02-16T00:00:26;7.00;71.60
53412;DHT22;39307;52.870;13.660;2024-02-16T00:02:53;7.00;71.60
53412;DHT22;39307;52.870;13.660;2024-02-16T00:05:19;7.00;71.50
53412;DHT22;39307;52.870;13.660;2024-02-16T00:07:46;7.00;71.50
53412;DHT22;39307;52.870;13.660;2024-02-16T00:10:13;7.00;71.50
53412;DHT22;39307;52.870;13.660;2024-02-16T00:12:40;7.00;71.60
53412;DHT22;39307;52.870;13.660;2024-02-16T00:15:07;7.00;71.50
53412;DHT22;39307;52.870;13.660;2024-02-16T00:17:35;7.00;71.60
53412;DHT22;39307;52.870;13.660;2024-02-16T00:20:02;7.00;71.60
53412;DHT22;39307;52.870;13.660;2024-02-16T00:22:30;7.00;71.60
53412;DHT22;39307;52.870;13.660;2024-02-16T00:24:57;7.00;71.60
53412;DHT22;39307;52.870;13.660;2024-02-16T00:27:23;7.00;71.60
53412;DHT22;39307;52.870;13.660;2024-02-16T00:29:50;7.00;71.60
53412;DHT22;39307;52.870;13.660;2024-02-16T00:32:17;7.00;71.70
53412;DHT22;39307;52.870;13.660;2024-02-16T00:34:44;7.00;71.60
53412;DHT22;39307;52.870;13.660;2024-02-16T00:37:11;7.00;71.80
53412;DHT22;39307;52.870;13.660;2024-02-16T00:39:38;7.00;71.60
53412;DHT22;39307;52.870;13.660;2024-02-16T00:42:05;7.00;71.60
53412;DHT22;39307;52.870;13.660;2024-02-16T00:44:32;7.00;71.60
53412;DHT22;39307;52.870;13.660;2024-02-16T00:46:59;7.00;71.60
53412;DHT22;39307;52.870;13.660;2024-02-16T00:49:26;7.00;71.80
53412;DHT22;39307;52.870;13.660;2024-02-16T00:51:53;7.00;71.60
53412;DHT22;39307;52.870;13.660;2024-02-16T00:54:19;7.00;71.70
53412;DHT22;39307;52.870;13.660;2024-02-16T00:56:46;7.00;71.70
53412;DHT22;39307;52.870;13.660;2024-02-16T00:59:16;7.00;71.60
53412;DHT22;39307;52.870;13.660;2024-02-16T01:01:43;7.00;71.70
53412;DHT22;39307;52.870;13.660;2024-02-16T01:04:09;7.00;71.70
53412;DHT22;39307;52.870;13.660;2024-02-16T01:06:36;7.00;71.80
53412;DHT22;39307;52.870;13.660;2024-02-16T01:09:03;7.00;71.80
53412;DHT22;39307;52.870;13.660;2024-02-16T01:11:30;7.00;71.70
53412;DHT22;39307;52.870;13.660;2024-02-16T01:13:57;7.00;71.70
53412;DHT22;39307;52.870;13.660;2024-02-16T01:16:23;7.00;71.60
53412;DHT22;39307;52.870;13.660;2024-02-16T01:18:50;7.00;71.70
53412;DHT22;39307;52.870;13.660;2024-02-16T01:21:17;7.00;71.60
53412;DHT22;39307;52.870;13.660;2024-02-16T01:23:44;7.00;71.70
53412;DHT22;39307;52.870;13.660;2024-02-16T01:26:10;7.00;71.70
53412;DHT22;39307;52.870;13.660;2024-02-16T01:28:37;7.00;71.70
53412;DHT22;39307;52.870;13.660;2024-02-16T01:31:04;7.00;71.70
53412;DHT22;39307;52.870;13.660;2024-02-16T01:33:31;7.00;71.70
53412;DHT22;39307;52.870;13.660;2024-02-16T01:35:58;7.00;71.70
53412;DHT22;39307;52.870;13.660;2024-02-16T01:38:24;7.00;71.70
53412;DHT22;39307;52.870;13.660;2024-02-16T01:40:51;7.00;71.70
53412;DHT22;39307;52.870;13.660;2024-02-16T01:43:21;7.00;71.60
53412;DHT22;39307;52.870;13.660;2024-02-16T01:45:48;7.00;71.70
53412;DHT22;39307;52.870;13.660;2024-02-16T01:48:16;7.00;71.70
53412;DHT22;39307;52.870;13.660;2024-02-16T01:50:43;7.00;71.70
53412;DHT22;39307;52.870;13.660;2024-02-16T01:53:16;7.00;71.60
53412;DHT22;39307;52.870;13.660;2024-02-16T01:55:43;7.00;71.80
53412;DHT22;39307;52.870;13.660;2024-02-16T01:58:13;7.00;71.60
53412;DHT22;39307;52.870;13.660;2024-02-16T02:00:40;7.00;71.70
53412;DHT22;39307;52.870;13.660;2024-02-16T02:03:07;7.00;71.70
53412;DHT22;39307;52.870;13.660;2024-02-16T02:05:34;7.00;71.70
53412;DHT22;39307;52.870;13.660;2024-02-16T02:08:10;7.00;71.60
53412;DHT22;39307;52.870;13.660;2024-02-16T02:10:37;7.00;71.70
53412;DHT22;39307;52.870;13.660;2024-02-16T02:13:04;7.00;71.60
53412;DHT22;39307;52.870;13.660;2024-02-16T02:15:31;7.00;71.70
53412;DHT22;39307;52.870;13.660;2024-02-16T02:17:58;7.00;71.70
53412;DHT22;39307;52.870;13.660;2024-02-16T02:20:25;7.00;71.60
53412;DHT22;39307;52.870;13.660;2024-02-16T02:22:52;7.00;71.70
53412;DHT22;39307;52.870;13.660;2024-02-16T02:25:19;7.00;71.60
53412;DHT22;39307;52.870;13.660;2024-02-16T02:27:45;7.00;71.80
53412;DHT22;39307;52.870;13.660;2024-02-16T02:30:12;7.00;71.70
53412;DHT22;39307;52.870;13.660;2024-02-16T02:32:39;7.00;71.60
53412;DHT22;39307;52.870;13.660;2024-02-16T02:35:07;7.00;71.60
53412;DHT22;39307;52.870;13.660;2024-02-16T02:37:34;7.00;71.70
53412;DHT22;39307;52.870;13.660;2024-02-16T02:40:02;7.00;71.60
53412;DHT22;39307;52.870;13.660;2024-02-16T02:42:29;7.00;71.80
53412;DHT22;39307;52.870;13.660;2024-02-16T02:44:56;7.00;71.60
53412;DHT22;39307;52.870;13.660;2024-02-16T02:47:23;7.00;71.80
53412;DHT22;39307;52.870;13.660;2024-02-16T02:49:50;7.00;71.70
53412;DHT22;39307;52.870;13.660;2024-02-16T02:52:16;7.10;71.80
53412;DHT22;39307;52.870;13.660;2024-02-16T02:54:43;7.00;71.70
53412;DHT22;39307;52.870;13.660;2024-02-16T02:57:10;7.00;71.80
53412;DHT22;39307;52.870;13.660;2024-02-16T02:59:37;7.00;71.80
53412;DHT22;39307;52.870;13.660;2024-02-16T03:02:04;7.00;71.90
53412;DHT22;39307;52.870;13.660;2024-02-16T03:04:31;7.00;71.80
53412;DHT22;39307;52.870;13.660;2024-02-16T03:06:58;7.10;71.80
53412;DHT22;39307;52.870;13.660;2024-02-16T03:09:25;7.00;71.70
53412;DHT22;39307;52.870;13.660;2024-02-16T03:11:52;7.00;71.70
53412;DHT22;39307;52.870;13.660;2024-02-16T03:14:19;7.00;71.80
53412;DHT22;39307;52.870;13.660;2024-02-16T03:16:45;7.10;71.80
53412;DHT22;39307;52.870;13.660;2024-02-16T03:19:12;7.00;71.80
53412;DHT22;39307;52.870;13.660;2024-02-16T03:21:39;7.00;71.80
53412;DHT22;39307;52.870;13.660;2024-02-16T03:24:06;7.00;71.80
53412;DHT22;39307;52.870;13.660;2024-02-16T03:26:33;7.10;71.70
53412;DHT22;39307;52.870;13.660;2024-02-16T03:29:00;7.10;71.80
53412;DHT22;39307;52.870;13.660;2024-02-16T03:31:27;7.10;71.70
53412;DHT22;39307;52.870;13.660;2024-02-16T03:33:54;7.10;71.70
53412;DHT22;39307;52.870;13.660;2024-02-16T03:36:21;7.10;71.80
53412;DHT22;39307;52.870;13.660;2024-02-16T03:38:49;7.10;71.90
53412;DHT22;39307;52.870;13.660;2024-02-16T03:41:20;7.10;71.90
53412;DHT22;39307;52.870;13.660;2024-02-16T03:43:47;7.10;71.70
53412;DHT22;39307;52.870;13.660;2024-02-16T03:46:14;7.10;71.90
53412;DHT22;39307;52.870;13.660;2024-02-16T03:48:42;7.10;71.80
53412;DHT22;39307;52.870;13.660;2024-02-16T03:51:09;7.10;71.80
53412;DHT22;39307;52.870;13.660;2024-02-16T03:53:36;7.10;71.80
53412;DHT22;39307;52.870;13.660;2024-02-16T03:56:03;7.10;71.80
53412;DHT22;39307;52.870;13.660;2024-02-16T03:58:31;7.10;71.80
53412;DHT22;39307;52.870;13.660;2024-02-16T04:00:58;7.10;71.80
53412;DHT22;39307;52.870;13.660;2024-02-16T04:03:25;7.10;71.90
53412;DHT22;39307;52.870;13.660;2024-02-16T04:05:52;7.10;71.80
53412;DHT22;39307;52.870;13.660;2024-02-16T04:08:19;7.10;71.80
53412;DHT22;39307;52.870;13.660;2024-02-16T04:10:46;7.10;71.70
53412;DHT22;39307;52.870;13.660;2024-02-16T04:13:13;7.10;71.90
53412;DHT22;39307;52.870;13.660;2024-02-16T04:15:40;7.10;71.80
53412;DHT22;39307;52.870;13.660;2024-02-16T04:18:07;7.10;71.90
53412;DHT22;39307;52.870;13.660;2024-02-16T04:20:34;7.10;71.80
53412;DHT22;39307;52.870;13.660;2024-02-16T04:23:01;7.10;71.90
53412;DHT22;39307;52.870;13.660;2024-02-16T04:25:28;7.10;71.80
53412;DHT22;39307;52.870;13.660;2024-02-16T04:27:55;7.10;71.90
53412;DHT22;39307;52.870;13.660;2024-02-16T04:30:21;7.10;71.80
53412;DHT22;39307;52.870;13.660;2024-02-16T04:32:48;7.10;71.90
53412;DHT22;39307;52.870;13.660;2024-02-16T04:35:15;7.10;71.80
53412;DHT22;39307;52.870;13.660;2024-02-16T04:37:42;7.10;71.80
53412;DHT22;39307;52.870;13.660;2024-02-16T04:40:09;7.10;71.80
53412;DHT22;39307;52.870;13.660;2024-02-16T04:42:37;7.10;71.90
53412;DHT22;39307;52.870;13.660;2024-02-16T04:45:04;7.10;71.80
53412;DHT22;39307;52.870;13.660;2024-02-16T04:47:31;7.10;71.80
53412;DHT22;39307;52.870;13.660;2024-02-16T04:49:58;7.10;71.90
53412;DHT22;39307;52.870;13.660;2024-02-16T04:52:25;7.10;71.80
53412;DHT22;39307;52.870;13.660;2024-02-16T04:54:52;7.10;71.90
53412;DHT22;39307;52.870;13.660;2024-02-16T04:57:19;7.10;71.90
53412;DHT22;39307;52.870;13.660;2024-02-16T04:59:45;7.10;71.90
53412;DHT22;39307;52.870;13.660;2024-02-16T05:02:12;7.10;71.90
53412;DHT22;39307;52.870;13.660;2024-02-16T05:04:39;7.10;71.80
53412;DHT22;39307;52.870;13.660;2024-02-16T05:07:06;7.10;71.80
53412;DHT22;39307;52.870;13.660;2024-02-16T05:09:33;7.10;71.90
53412;DHT22;39307;52.870;13.660;2024-02-16T05:12:00;7.10;71.90
53412;DHT22;39307;52.870;13.660;2024-02-16T05:14:27;7.10;71.90
53412;DHT22;39307;52.870;13.660;2024-02-16T05:16:53;7.10;71.90
53412;DHT22;39307;52.870;13.660;2024-02-16T05:19:20;7.10;71.80
53412;DHT22;39307;52.870;13.660;2024-02-16T05:21:47;7.10;71.80
53412;DHT22;39307;52.870;13.660;2024-02-16T05:24:14;7.10;71.80
53412;DHT22;39307;52.870;13.660;2024-02-16T05:26:40;7.10;71.90
53412;DHT22;39307;52.870;13.660;2024-02-16T05:29:07;7.10;71.80
53412;DHT22;39307;52.870;13.660;2024-02-16T05:31:34;7.10;72.00
53412;DHT22;39307;52.870;13.660;2024-02-16T05:34:01;7.10;71.80
53412;DHT22;39307;52.870;13.660;2024-02-16T05:36:28;7.10;71.80
53412;DHT22;39307;52.870;13.660;2024-02-16T05:38:55;7.10;71.90
53412;DHT22;39307;52.870;13.660;2024-02-16T05:41:22;7.10;71.90
53412;DHT22;39307;52.870;13.660;2024-02-16T05:43:48;7.10;71.90
53412;DHT22;39307;52.870;13.660;2024-02-16T05:46:16;7.10;71.80
53412;DHT22;39307;52.870;13.660;2024-02-16T05:48:43;7.20;71.80
53412;DHT22;39307;52.870;13.660;2024-02-16T05:51:11;7.10;71.90
53412;DHT22;39307;52.870;13.660;2024-02-16T05:53:39;7.10;71.90
53412;DHT22;39307;52.870;13.660;2024-02-16T05:56:06;7.20;71.80
53412;DHT22;39307;52.870;13.660;2024-02-16T05:58:33;7.10;71.90
53412;DHT22;39307;52.870;13.660;2024-02-16T06:01:00;7.20;71.90
53412;DHT22;39307;52.870;13.660;2024-02-16T06:03:27;7.20;71.90
53412;DHT22;39307;52.870;13.660;2024-02-16T06:05:54;7.10;71.80
53412;DHT22;39307;52.870;13.660;2024-02-16T06:08:21;7.10;71.90
53412;DHT22;39307;52.870;13.660;2024-02-16T06:10:48;7.20;71.80
53412;DHT22;39307;52.870;13.660;2024-02-16T06:13:15;7.20;71.90
53412;DHT22;39307;52.870;13.660;2024-02-16T06:15:42;7.10;72.00
53412;DHT22;39307;52.870;13.660;2024-02-16T06:18:09;7.20;71.90
53412;DHT22;39307;52.870;13.660;2024-02-16T06:20:35;7.20;72.10
53412;DHT22;39307;52.870;13.660;2024-02-16T06:23:02;7.10;71.90
53412;DHT22;39307;52.870;13.660;2024-02-16T06:25:30;7.20;71.90
53412;DHT22;39307;52.870;13.660;2024-02-16T06:27:56;7.20;71.90
53412;DHT22;39307;52.870;13.660;2024-02-16T06:30:23;7.20;71.90
53412;DHT22;39307;52.870;13.660;2024-02-16T06:32:50;7.10;71.80
53412;DHT22;39307;52.870;13.660;2024-02-16T06:35:18;7.10;71.90
53412;DHT22;39307;52.870;13.660;2024-02-16T06:37:44;7.20;71.90
53412;DHT22;39307;52.870;13.660;2024-02-16T06:40:11;7.10;71.90
53412;DHT22;39307;52.870;13.660;2024-02-16T06:42:39;7.20;72.00
53412;DHT22;39307;52.870;13.660;2024-02-16T06:45:06;7.20;71.80
53412;DHT22;39307;52.870;13.660;2024-02-16T06:47:33;7.20;71.90
53412;DHT22;39307;52.870;13.660;2024-02-16T06:50:01;7.10;71.90
53412;DHT22;39307;52.870;13.660;2024-02-16T06:52:27;7.20;71.80
53412;DHT22;39307;52.870;13.660;2024-02-16T06:54:54;7.10;71.90
53412;DHT22;39307;52.870;13.660;2024-02-16T06:57:21;7.20;72.00
53412;DHT22;39307;52.870;13.660;2024-02-16T06:59:48;7.20;72.00
53412;DHT22;39307;52.870;13.660;2024-02-16T07:02:15;7.20;72.10
53412;DHT22;39307;52.870;13.660;2024-02-16T07:04:42;7.20;71.90
53412;DHT22;39307;52.870;13.660;2024-02-16T07:07:09;7.20;71.90
53412;DHT22;39307;52.870;13.660;2024-02-16T07:09:36;7.20;72.00
53412;DHT22;39307;52.870;13.660;2024-02-16T07:12:03;7.20;72.00
53412;DHT22;39307;52.870;13.660;2024-02-16T07:14:29;7.20;71.90
53412;DHT22;39307;52.870;13.660;2024-02-16T07:16:56;7.10;71.90
53412;DHT22;39307;52.870;13.660;2024-02-16T07:19:23;7.20;71.90
53412;DHT22;39307;52.870;13.660;2024-02-16T07:21:50;7.20;72.10
53412;DHT22;39307;52.870;13.660;2024-02-16T07:24:17;7.20;72.10
53412;DHT22;39307;52.870;13.660;2024-02-16T07:26:44;7.20;72.00
53412;DHT22;39307;52.870;13.660;2024-02-16T07:29:11;7.20;72.00
53412;DHT22;39307;52.870;13.660;2024-02-16T07:31:38;7.20;71.90
53412;DHT22;39307;52.870;13.660;2024-02-16T07:34:05;7.10;72.00
53412;DHT22;39307;52.870;13.660;2024-02-16T07:36:31;7.10;71.90
53412;DHT22;39307;52.870;13.660;2024-02-16T07:39:01;7.20;71.90
53412;DHT22;39307;52.870;13.660;2024-02-16T07:41:28;7.20;71.90
53412;DHT22;39307;52.870;13.660;2024-02-16T07:43:54;7.20;71.90
53412;DHT22;39307;52.870;13.660;2024-02-16T07:46:21;7.20;71.90
53412;DHT22;39307;52.870;13.660;2024-02-16T07:48:48;7.20;71.90
53412;DHT22;39307;52.870;13.660;2024-02-16T07:51:16;7.10;71.90
53412;DHT22;39307;52.870;13.660;2024-02-16T07:53:42;7.20;71.80
53412;DHT22;39307;52.870;13.660;2024-02-16T07:56:09;7.20;71.80
53412;DHT22;39307;52.870;13.660;2024-02-16T07:58:36;7.20;71.80
53412;DHT22;39307;52.870;13.660;2024-02-16T08:01:03;7.20;71.80
53412;DHT22;39307;52.870;13.660;2024-02-16T08:03:30;7.20;71.80
53412;DHT22;39307;52.870;13.660;2024-02-16T08:05:57;7.20;71.80
53412;DHT22;39307;52.870;13.660;2024-02-16T08:08:24;7.20;71.80
53412;DHT22;39307;52.870;13.660;2024-02-16T08:10:57;7.20;71.90
53412;DHT22;39307;52.870;13.660;2024-02-16T08:13:24;7.20;71.80
53412;DHT22;39307;52.870;13.660;2024-02-16T08:15:50;7.20;71.80
53412;DHT22;39307;52.870;13.660;2024-02-16T08:18:17;7.20;71.80
53412;DHT22;39307;52.870;13.660;2024-02-16T08:20:44;7.20;71.90
53412;DHT22;39307;52.870;13.660;2024-02-16T08:23:11;7.20;71.90
53412;DHT22;39307;52.870;13.660;2024-02-16T08:25:38;7.10;71.80
53412;DHT22;39307;52.870;13.660;2024-02-16T08:28:05;7.20;71.70
53412;DHT22;39307;52.870;13.660;2024-02-16T08:30:32;7.20;71.80
53412;DHT22;39307;52.870;13.660;2024-02-16T08:32:58;7.20;71.70
53412;DHT22;39307;52.870;13.660;2024-02-16T08:35:25;7.20;71.80
53412;DHT22;39307;52.870;13.660;2024-02-16T08:37:52;7.10;71.70
53412;DHT22;39307;52.870;13.660;2024-02-16T08:40:18;7.20;71.70
53412;DHT22;39307;52.870;13.660;2024-02-16T08:42:45;7.20;71.70
53412;DHT22;39307;52.870;13.660;2024-02-16T08:45:12;7.20;71.70
53412;DHT22;39307;52.870;13.660;2024-02-16T08:47:39;7.20;71.70
53412;DHT22;39307;52.870;13.660;2024-02-16T08:50:06;7.20;71.80
53412;DHT22;39307;52.870;13.660;2024-02-16T08:52:33;7.10;71.70
53412;DHT22;39307;52.870;13.660;2024-02-16T08:54:59;7.20;71.80
53412;DHT22;39307;52.870;13.660;2024-02-16T08:57:26;7.10;71.80
53412;DHT22;39307;52.870;13.660;2024-02-16T08:59:53;7.10;71.70
53412;DHT22;39307;52.870;13.660;2024-02-16T09:02:20;7.20;71.80
53412;DHT22;39307;52.870;13.660;2024-02-16T09:04:47;7.20;71.80
53412;DHT22;39307;52.870;13.660;2024-02-16T09:07:14;7.10;71.80
53412;DHT22;39307;52.870;13.660;2024-02-16T09:09:41;7.20;71.80
53412;DHT22;39307;52.870;13.660;2024-02-16T09:12:08;7.20;71.80
53412;DHT22;39307;52.870;13.660;2024-02-16T09:14:34;7.10;71.80
53412;DHT22;39307;52.870;13.660;2024-02-16T09:17:01;7.20;71.80
53412;DHT22;39307;52.870;13.660;2024-02-16T09:19:28;7.10;71.80
53412;DHT22;39307;52.870;13.660;2024-02-16T09:21:55;7.20;71.80
53412;DHT22;39307;52.870;13.660;2024-02-16T09:24:21;7.20;71.80
53412;DHT22;39307;52.870;13.660;2024-02-16T09:26:49;7.20;71.80
53412;DHT22;39307;52.870;13.660;2024-02-16T09:29:16;7.20;71.80
53412;DHT22;39307;52.870;13.660;2024-02-16T09:31:43;7.20;71.80
53412;DHT22;39307;52.870;13.660;2024-02-16T09:34:10;7.10;71.80
53412;DHT22;39307;52.870;13.660;2024-02-16T09:36:36;7.20;71.80
53412;DHT22;39307;52.870;13.660;2024-02-16T09:39:04;7.20;71.80
53412;DHT22;39307;52.870;13.660;2024-02-16T09:41:34;7.10;71.80
53412;DHT22;39307;52.870;13.660;2024-02-16T09:44:03;7.20;71.90
53412;DHT22;39307;52.870;13.660;2024-02-16T09:46:30;7.20;71.90
53412;DHT22;39307;52.870;13.660;2024-02-16T09:49:03;7.10;71.80
53412;DHT22;39307;52.870;13.660;2024-02-16T09:51:31;7.10;71.80
53412;DHT22;39307;52.870;13.660;2024-02-16T09:53:58;7.20;71.80
53412;DHT22;39307;52.870;13.660;2024-02-16T09:56:25;7.10;71.80
53412;DHT22;39307;52.870;13.660;2024-02-16T09:58:52;7.20;71.90
53412;DHT22;39307;52.870;13.660;2024-02-16T10:01:20;7.20;71.90
53412;DHT22;39307;52.870;13.660;2024-02-16T10:03:48;7.20;71.90
53412;DHT22;39307;52.870;13.660;2024-02-16T10:06:16;7.10;71.90
53412;DHT22;39307;52.870;13.660;2024-02-16T10:08:53;7.20;71.90
53412;DHT22;39307;52.870;13.660;2024-02-16T10:11:25;7.10;71.90
53412;DHT22;39307;52.870;13.660;2024-02-16T10:14:00;7.20;71.90
53412;DHT22;39307;52.870;13.660;2024-02-16T10:16:28;7.20;71.90
53412;DHT22;39307;52.870;13.660;2024-02-16T10:19:06;7.10;72.00
53412;DHT22;39307;52.870;13.660;2024-02-16T10:21:34;7.20;71.80
53412;DHT22;39307;52.870;13.660;2024-02-16T10:24:02;7.10;72.00
53412;DHT22;39307;52.870;13.660;2024-02-16T10:26:32;7.10;72.00
53412;DHT22;39307;52.870;13.660;2024-02-16T10:28:58;7.20;71.90
53412;DHT22;39307;52.870;13.660;2024-02-16T10:31:26;7.20;72.00
53412;DHT22;39307;52.870;13.660;2024-02-16T10:33:58;7.20;72.00
53412;DHT22;39307;52.870;13.660;2024-02-16T10:36:27;7.20;72.00
53412;DHT22;39307;52.870;13.660;2024-02-16T10:38:55;7.20;71.90
53412;DHT22;39307;52.870;13.660;2024-02-16T10:41:27;7.20;72.00
53412;DHT22;39307;52.870;13.660;2024-02-16T10:43:54;7.20;72.00
53412;DHT22;39307;52.870;13.660;2024-02-16T10:46:23;7.20;72.00
53412;DHT22;39307;52.870;13.660;2024-02-16T10:48:50;7.20;72.00
53412;DHT22;39307;52.870;13.660;2024-02-16T10:51:22;7.10;72.00
53412;DHT22;39307;52.870;13.660;2024-02-16T10:53:55;7.20;72.00
53412;DHT22;39307;52.870;13.660;2024-02-16T10:56:49;7.20;72.00
53412;DHT22;39307;52.870;13.660;2024-02-16T10:59:16;7.20;72.00
53412;DHT22;39307;52.870;13.660;2024-02-16T11:01:44;7.20;72.00
53412;DHT22;39307;52.870;13.660;2024-02-16T11:04:17;7.20;72.10
53412;DHT22;39307;52.870;13.660;2024-02-16T11:06:54;7.20;72.00
53412;DHT22;39307;52.870;13.660;2024-02-16T11:09:27;7.20;72.10
53412;DHT22;39307;52.870;13.660;2024-02-16T11:12:05;7.20;72.10
53412;DHT22;39307;52.870;13.660;2024-02-16T11:14:41;7.20;72.10
53412;DHT22;39307;52.870;13.660;2024-02-16T11:17:14;7.20;72.00
53412;DHT22;39307;52.870;13.660;2024-02-16T11:19:42;7.20;72.10
53412;DHT22;39307;52.870;13.660;2024-02-16T11:22:14;7.20;72.10
53412;DHT22;39307;52.870;13.660;2024-02-16T11:24:47;7.20;72.00
53412;DHT22;39307;52.870;13.660;2024-02-16T11:27:15;7.20;72.10
53412;DHT22;39307;52.870;13.660;2024-02-16T11:29:43;7.20;72.10
53412;DHT22;39307;52.870;13.660;2024-02-16T11:32:09;7.20;72.10
53412;DHT22;39307;52.870;13.660;2024-02-16T11:34:36;7.20;72.10
53412;DHT22;39307;52.870;13.660;2024-02-16T11:37:03;7.20;72.10
53412;DHT22;39307;52.870;13.660;2024-02-16T11:39:30;7.20;72.20
53412;DHT22;39307;52.870;13.660;2024-02-16T11:42:09;7.20;72.10
53412;DHT22;39307;52.870;13.660;2024-02-16T11:44:39;7.20;72.20
53412;DHT22;39307;52.870;13.660;2024-02-16T11:47:08;7.20;72.20
53412;DHT22;39307;52.870;13.660;2024-02-16T11:49:35;7.20;72.20
53412;DHT22;39307;52.870;13.660;2024-02-16T11:52:04;7.20;72.10
53412;DHT22;39307;52.870;13.660;2024-02-16T11:54:31;7.20;72.10
53412;DHT22;39307;52.870;13.660;2024-02-16T11:56:58;7.20;72.20
53412;DHT22;39307;52.870;13.660;2024-02-16T11:59:25;7.20;72.20
53412;DHT22;39307;52.870;13.660;2024-02-16T12:01:53;7.20;72.20
53412;DHT22;39307;52.870;13.660;2024-02-16T12:04:26;7.20;72.10
53412;DHT22;39307;52.870;13.660;2024-02-16T12:07:00;7.20;72.20
53412;DHT22;39307;52.870;13.660;2024-02-16T12:09:29;7.20;72.10
53412;DHT22;39307;52.870;13.660;2024-02-16T12:11:56;7.20;72.20
53412;DHT22;39307;52.870;13.660;2024-02-16T12:14:24;7.20;72.20
53412;DHT22;39307;52.870;13.660;2024-02-16T12:16:54;7.20;72.20
53412;DHT22;39307;52.870;13.660;2024-02-16T12:19:22;7.20;72.20
53412;DHT22;39307;52.870;13.660;2024-02-16T12:21:53;7.20;72.20
53412;DHT22;39307;52.870;13.660;2024-02-16T12:24:21;7.20;72.10
53412;DHT22;39307;52.870;13.660;2024-02-16T12:26:48;7.20;72.20
53412;DHT22;39307;52.870;13.660;2024-02-16T12:29:15;7.20;72.20
53412;DHT22;39307;52.870;13.660;2024-02-16T12:31:46;7.20;72.20
53412;DHT22;39307;52.870;13.660;2024-02-16T12:34:13;7.20;72.20
53412;DHT22;39307;52.870;13.660;2024-02-16T12:36:40;7.20;72.20
53412;DHT22;39307;52.870;13.660;2024-02-16T12:39:08;7.20;72.20
53412;DHT22;39307;52.870;13.660;2024-02-16T12:41:35;7.20;72.20
53412;DHT22;39307;52.870;13.660;2024-02-16T12:44:02;7.20;72.20
53412;DHT22;39307;52.870;13.660;2024-02-16T12:46:28;7.20;72.20
53412;DHT22;39307;52.870;13.660;2024-02-16T12:48:55;7.20;72.20
53412;DHT22;39307;52.870;13.660;2024-02-16T12:51:22;7.20;72.20
53412;DHT22;39307;52.870;13.660;2024-02-16T12:53:49;7.20;72.30
53412;DHT22;39307;52.870;13.660;2024-02-16T12:56:16;7.20;72.20
53412;DHT22;39307;52.870;13.660;2024-02-16T12:58:43;7.20;72.20
53412;DHT22;39307;52.870;13.660;2024-02-16T13:01:10;7.20;72.20
53412;DHT22;39307;52.870;13.660;2024-02-16T13:03:38;7.20;72.20
53412;DHT22;39307;52.870;13.660;2024-02-16T13:06:05;7.20;72.20
53412;DHT22;39307;52.870;13.660;2024-02-16T13:08:33;7.20;72.20
53412;DHT22;39307;52.870;13.660;2024-02-16T13:11:02;7.20;72.20
53412;DHT22;39307;52.870;13.660;2024-02-16T13:13:29;7.20;72.30
53412;DHT22;39307;52.870;13.660;2024-02-16T13:15:56;7.20;72.20
53412;DHT22;39307;52.870;13.660;2024-02-16T13:18:23;7.20;72.20
53412;DHT22;39307;52.870;13.660;2024-02-16T13:20:50;7.20;72.20
53412;DHT22;39307;52.870;13.660;2024-02-16T13:23:17;7.20;72.20
53412;DHT22;39307;52.870;13.660;2024-02-16T13:25:44;7.20;72.20
53412;DHT22;39307;52.870;13.660;2024-02-16T13:28:11;7.20;72.30
53412;DHT22;39307;52.870;13.660;2024-02-16T13:30:38;7.20;72.30
53412;DHT22;39307;52.870;13.660;2024-02-16T13:33:05;7.20;72.30
53412;DHT22;39307;52.870;13.660;2024-02-16T13:35:32;7.20;72.30
53412;DHT22;39307;52.870;13.660;2024-02-16T13:37:59;7.20;72.30
53412;DHT22;39307;52.870;13.660;2024-02-16T13:40:26;7.20;72.30
53412;DHT22;39307;52.870;13.660;2024-02-16T13:42:52;7.20;72.20
53412;DHT22;39307;52.870;13.660;2024-02-16T13:45:19;7.20;72.30
53412;DHT22;39307;52.870;13.660;2024-02-16T13:47:46;7.20;72.20
53412;DHT22;39307;52.870;13.660;2024-02-16T13:50:13;7.20;72.30
53412;DHT22;39307;52.870;13.660;2024-02-16T13:52:40;7.20;72.20
53412;DHT22;39307;52.870;13.660;2024-02-16T13:55:07;7.20;72.30
53412;DHT22;39307;52.870;13.660;2024-02-16T13:57:34;7.20;72.30
53412;DHT22;39307;52.870;13.660;2024-02-16T14:00:01;7.20;72.20
53412;DHT22;39307;52.870;13.660;2024-02-16T14:02:28;7.20;72.20
53412;DHT22;39307;52.870;13.660;2024-02-16T14:04:54;7.20;72.30
53412;DHT22;39307;52.870;13.660;2024-02-16T14:07:21;7.20;72.30
53412;DHT22;39307;52.870;13.660;2024-02-16T14:09:48;7.20;72.20
53412;DHT22;39307;52.870;13.660;2024-02-16T14:12:15;7.20;72.30
53412;DHT22;39307;52.870;13.660;2024-02-16T14:14:42;7.20;72.30
53412;DHT22;39307;52.870;13.660;2024-02-16T14:17:09;7.20;72.40
53412;DHT22;39307;52.870;13.660;2024-02-16T14:19:36;7.20;72.30
53412;DHT22;39307;52.870;13.660;2024-02-16T14:22:02;7.20;72.30
53412;DHT22;39307;52.870;13.660;2024-02-16T14:24:29;7.20;72.40
53412;DHT22;39307;52.870;13.660;2024-02-16T14:26:56;7.20;72.30
53412;DHT22;39307;52.870;13.660;2024-02-16T14:29:23;7.20;72.30
53412;DHT22;39307;52.870;13.660;2024-02-16T14:31:50;7.20;72.30
53412;DHT22;39307;52.870;13.660;2024-02-16T14:34:17;7.30;72.30
53412;DHT22;39307;52.870;13.660;2024-02-16T14:36:43;7.20;72.30
53412;DHT22;39307;52.870;13.660;2024-02-16T14:39:10;7.20;72.30
53412;DHT22;39307;52.870;13.660;2024-02-16T14:41:37;7.20;72.40
53412;DHT22;39307;52.870;13.660;2024-02-16T14:44:04;7.20;72.30
53412;DHT22;39307;52.870;13.660;2024-02-16T14:46:31;7.30;72.30
53412;DHT22;39307;52.870;13.660;2024-02-16T14:48:58;7.30;72.40
53412;DHT22;39307;52.870;13.660;2024-02-16T14:51:24;7.30;72.30
53412;DHT22;39307;52.870;13.660;2024-02-16T14:53:51;7.30;72.30
53412;DHT22;39307;52.870;13.660;2024-02-16T14:56:18;7.20;72.40
53412;DHT22;39307;52.870;13.660;2024-02-16T14:58:45;7.30;72.30
53412;DHT22;39307;52.870;13.660;2024-02-16T15:01:12;7.30;72.40
53412;DHT22;39307;52.870;13.660;2024-02-16T15:03:39;7.30;72.30
53412;DHT22;39307;52.870;13.660;2024-02-16T15:06:06;7.30;72.40
53412;DHT22;39307;52.870;13.660;2024-02-16T15:08:32;7.30;72.40
53412;DHT22;39307;52.870;13.660;2024-02-16T15:10:59;7.30;72.30
53412;DHT22;39307;52.870;13.660;2024-02-16T15:13:26;7.30;72.40
53412;DHT22;39307;52.870;13.660;2024-02-16T15:15:53;7.30;72.40
53412;DHT22;39307;52.870;13.660;2024-02-16T15:18:19;7.30;72.40
53412;DHT22;39307;52.870;13.660;2024-02-16T15:20:46;7.30;72.40
53412;DHT22;39307;52.870;13.660;2024-02-16T15:23:13;7.30;72.40
53412;DHT22;39307;52.870;13.660;2024-02-16T15:25:40;7.30;72.40
53412;DHT22;39307;52.870;13.660;2024-02-16T15:28:07;7.30;72.40
53412;DHT22;39307;52.870;13.660;2024-02-16T15:30:34;7.30;72.30